createdAt,value
2022-12-31T00:01:28.075Z,10.25
2022-12-31T00:03:56.606Z,8.80
2022-12-31T00:06:32.619Z,9.10
2022-12-31T00:09:02.263Z,8.50
2022-12-31T00:11:30.625Z,9.02
2022-12-31T00:13:58.169Z,7.22
2022-12-31T00:16:30.875Z,9.20
2022-12-31T00:18:59.897Z,9.52
2022-12-31T00:21:28.851Z,9.20
2022-12-31T00:23:56.054Z,9.90
2022-12-31T00:26:26.127Z,9.30
2022-12-31T00:28:54.563Z,9.02
2022-12-31T00:31:23.873Z,5.90
2022-12-31T00:33:51.531Z,11.50
2022-12-31T00:36:24.171Z,5.82
2022-12-31T00:38:53.159Z,7.75
2022-12-31T00:41:21.523Z,7.45
2022-12-31T00:43:48.992Z,5.32
2022-12-31T00:46:17.013Z,6.40
2022-12-31T00:48:44.357Z,6.28
2022-12-31T00:51:13.842Z,7.60
2022-12-31T00:53:41.478Z,10.10
2022-12-31T00:56:20.732Z,8.52
2022-12-31T00:58:48.019Z,13.40
2022-12-31T01:01:20.957Z,8.68
2022-12-31T01:03:49.912Z,9.73
2022-12-31T01:06:17.118Z,15.55
2022-12-31T01:08:44.886Z,10.65
2022-12-31T01:11:19.228Z,10.67
2022-12-31T01:14:01.845Z,14.75
2022-12-31T01:16:34.760Z,15.63
2022-12-31T01:19:04.396Z,11.60
2022-12-31T01:21:32.033Z,16.55
2022-12-31T01:23:59.514Z,10.67
2022-12-31T01:26:27.163Z,11.70
2022-12-31T01:28:54.541Z,10.88
2022-12-31T01:31:23.109Z,9.50
2022-12-31T01:33:51.155Z,11.38
2022-12-31T01:36:25.570Z,10.53
2022-12-31T01:38:54.402Z,11.80
2022-12-31T01:41:24.508Z,12.63
2022-12-31T01:43:54.097Z,12.00
2022-12-31T01:46:30.009Z,11.00
2022-12-31T01:49:03.022Z,9.93
2022-12-31T01:51:34.448Z,10.18
2022-12-31T01:54:03.800Z,11.52
2022-12-31T01:56:30.990Z,8.68
2022-12-31T01:58:58.574Z,9.68
2022-12-31T02:01:29.200Z,11.73
2022-12-31T02:03:57.288Z,8.55
2022-12-31T02:06:34.928Z,8.82
2022-12-31T02:09:02.269Z,10.55
2022-12-31T02:11:36.557Z,9.57
2022-12-31T02:14:11.769Z,9.57
2022-12-31T02:17:01.015Z,9.68
2022-12-31T02:20:06.133Z,6.55
2022-12-31T02:22:41.824Z,5.15
2022-12-31T02:25:47.720Z,4.97
2022-12-31T02:28:39.046Z,4.17
2022-12-31T02:31:28.888Z,6.90
2022-12-31T02:34:06.364Z,6.47
2022-12-31T02:36:38.274Z,6.47
2022-12-31T02:39:07.471Z,4.68
2022-12-31T02:41:53.547Z,6.10
2022-12-31T02:44:32.274Z,8.55
2022-12-31T02:47:08.060Z,6.95
2022-12-31T02:49:56.365Z,4.75
2022-12-31T02:52:57.700Z,4.13
2022-12-31T02:55:48.851Z,5.27
2022-12-31T02:58:21.739Z,5.60
2022-12-31T03:01:16.486Z,5.22
2022-12-31T03:03:43.852Z,6.28
2022-12-31T03:06:12.109Z,5.25
2022-12-31T03:09:01.098Z,5.03
2022-12-31T03:11:47.052Z,7.15
2022-12-31T03:14:14.333Z,5.07
2022-12-31T03:16:41.595Z,5.00
2022-12-31T03:19:27.683Z,6.97
2022-12-31T03:22:13.470Z,7.80
2022-12-31T03:24:59.513Z,5.30
2022-12-31T03:27:26.740Z,5.47
2022-12-31T03:29:53.549Z,6.78
2022-12-31T03:32:20.497Z,5.70
2022-12-31T03:34:47.722Z,7.13
2022-12-31T03:37:14.635Z,5.38
2022-12-31T03:39:41.988Z,5.88
2022-12-31T03:42:09.272Z,7.43
2022-12-31T03:44:36.480Z,9.23
2022-12-31T03:47:03.995Z,4.80
2022-12-31T03:49:31.209Z,6.43
2022-12-31T03:51:58.061Z,9.55
2022-12-31T03:54:24.967Z,7.57
2022-12-31T03:56:55.365Z,6.97
2022-12-31T03:59:27.373Z,8.97
2022-12-31T04:01:54.690Z,9.00
2022-12-31T04:04:22.170Z,8.38
2022-12-31T04:06:49.444Z,7.28
2022-12-31T04:09:16.263Z,9.45
2022-12-31T04:11:43.439Z,4.20
2022-12-31T04:14:11.608Z,6.25
2022-12-31T04:16:38.993Z,8.70
2022-12-31T04:19:06.286Z,6.35
2022-12-31T04:21:35.353Z,16.45
2022-12-31T04:24:02.707Z,8.07
2022-12-31T04:26:30.160Z,7.32
2022-12-31T04:28:58.672Z,6.47
2022-12-31T04:31:25.968Z,10.95
2022-12-31T04:33:53.905Z,12.10
2022-12-31T04:36:21.242Z,13.53
2022-12-31T04:38:48.080Z,9.05
2022-12-31T04:41:18.166Z,11.18
2022-12-31T04:43:50.571Z,11.85
2022-12-31T04:46:20.679Z,10.30
2022-12-31T04:48:48.150Z,15.73
2022-12-31T04:51:15.355Z,13.15
2022-12-31T04:53:42.492Z,11.45
2022-12-31T04:56:10.138Z,9.38
2022-12-31T04:58:38.418Z,9.30
2022-12-31T05:01:05.979Z,8.30
2022-12-31T05:03:33.817Z,7.57
2022-12-31T05:06:07.018Z,9.50
2022-12-31T05:08:34.159Z,7.82
2022-12-31T05:11:01.705Z,9.02
2022-12-31T05:13:33.091Z,11.40
2022-12-31T05:16:01.293Z,7.97
2022-12-31T05:18:28.613Z,8.60
2022-12-31T05:20:55.980Z,8.40
2022-12-31T05:23:24.321Z,8.10
2022-12-31T05:25:51.509Z,7.33
2022-12-31T05:28:19.105Z,8.60
2022-12-31T05:30:49.497Z,10.70
2022-12-31T05:33:17.114Z,8.55
2022-12-31T05:35:44.122Z,10.10
2022-12-31T05:38:11.590Z,9.03
2022-12-31T05:40:38.891Z,10.35
2022-12-31T05:43:06.293Z,6.20
2022-12-31T05:45:33.141Z,5.95
2022-12-31T05:48:00.391Z,6.65
2022-12-31T05:50:27.716Z,7.67
2022-12-31T05:52:56.565Z,7.15
2022-12-31T05:55:23.658Z,6.50
2022-12-31T05:57:50.936Z,6.85
2022-12-31T06:00:18.291Z,5.13
2022-12-31T06:02:45.471Z,8.50
2022-12-31T06:05:12.513Z,7.03
2022-12-31T06:07:39.744Z,7.18
2022-12-31T06:10:07.132Z,6.05
2022-12-31T06:12:34.404Z,6.75
2022-12-31T06:15:01.614Z,6.97
2022-12-31T06:17:32.432Z,6.72
2022-12-31T06:19:59.900Z,7.30
2022-12-31T06:22:27.064Z,6.47
2022-12-31T06:24:54.573Z,9.50
2022-12-31T06:27:21.800Z,11.60
2022-12-31T06:29:49.469Z,10.20
2022-12-31T06:32:16.721Z,9.57
2022-12-31T06:34:43.518Z,9.90
2022-12-31T06:37:10.954Z,9.52
2022-12-31T06:39:38.179Z,12.07
2022-12-31T06:42:05.605Z,9.18
2022-12-31T06:44:32.852Z,11.30
2022-12-31T06:46:59.695Z,11.30
2022-12-31T06:49:26.576Z,13.15
2022-12-31T06:51:53.807Z,12.13
2022-12-31T06:54:21.025Z,13.00
2022-12-31T06:56:48.327Z,10.77
2022-12-31T06:59:29.115Z,8.85
2022-12-31T07:02:13.376Z,9.38
2022-12-31T07:05:13.071Z,7.67
2022-12-31T07:07:56.122Z,8.88
2022-12-31T07:10:39.533Z,6.90
2022-12-31T07:13:25.120Z,4.97
2022-12-31T07:16:12.631Z,5.82
2022-12-31T07:18:52.629Z,4.90
2022-12-31T07:21:40.323Z,5.90
2022-12-31T07:24:08.766Z,4.07
2022-12-31T07:26:56.215Z,4.65
2022-12-31T07:29:48.453Z,2.40
2022-12-31T07:32:27.509Z,4.23
2022-12-31T07:35:15.285Z,3.63
2022-12-31T07:38:20.962Z,3.90
2022-12-31T07:40:53.788Z,3.65
2022-12-31T07:43:41.248Z,3.63
2022-12-31T07:46:19.196Z,6.10
2022-12-31T07:48:46.313Z,4.90
2022-12-31T07:51:13.652Z,5.25
2022-12-31T07:53:40.856Z,5.60
2022-12-31T07:56:09.394Z,6.03
2022-12-31T07:58:39.925Z,5.20
2022-12-31T08:01:12.519Z,6.88
2022-12-31T08:04:09.743Z,7.55
2022-12-31T08:06:36.916Z,9.25
2022-12-31T08:09:21.730Z,6.15
2022-12-31T08:11:56.995Z,7.80
2022-12-31T08:14:26.725Z,5.03
2022-12-31T08:16:54.471Z,5.72
2022-12-31T08:19:30.666Z,6.05
2022-12-31T08:22:13.194Z,5.22
2022-12-31T08:24:59.355Z,6.87
2022-12-31T08:28:00.140Z,5.18
2022-12-31T08:30:44.456Z,6.38
2022-12-31T08:33:49.539Z,3.38
2022-12-31T08:36:34.308Z,4.25
2022-12-31T08:39:26.470Z,5.70
2022-12-31T08:41:57.080Z,4.20
2022-12-31T08:44:45.848Z,4.28
2022-12-31T08:47:38.569Z,3.67
2022-12-31T08:50:06.765Z,5.70
2022-12-31T08:52:34.118Z,2.53
2022-12-31T08:55:01.272Z,4.05
2022-12-31T08:57:42.173Z,4.38
2022-12-31T09:00:16.240Z,3.13
2022-12-31T09:03:14.483Z,3.10
2022-12-31T09:06:03.287Z,3.77
2022-12-31T09:08:42.039Z,5.10
2022-12-31T09:11:40.822Z,5.80
2022-12-31T09:14:23.515Z,6.05
2022-12-31T09:16:53.094Z,3.30
2022-12-31T09:19:20.651Z,3.87
2022-12-31T09:21:48.069Z,2.92
2022-12-31T09:24:15.730Z,6.57
2022-12-31T09:27:09.613Z,4.30
2022-12-31T09:30:01.313Z,7.32
2022-12-31T09:33:00.361Z,8.67
2022-12-31T09:35:46.176Z,8.63
2022-12-31T09:38:44.075Z,7.47
2022-12-31T09:41:33.900Z,6.78
2022-12-31T09:44:12.663Z,7.68
2022-12-31T09:46:51.236Z,5.40
2022-12-31T09:49:39.289Z,7.07
2022-12-31T09:52:38.775Z,6.75
2022-12-31T09:55:33.520Z,7.80
2022-12-31T09:58:00.715Z,6.82
2022-12-31T10:00:38.899Z,5.77
2022-12-31T10:03:20.914Z,6.15
2022-12-31T10:06:17.930Z,8.38
2022-12-31T10:08:45.238Z,5.20
2022-12-31T10:11:43.239Z,3.92
2022-12-31T10:14:31.338Z,4.33
2022-12-31T10:16:58.616Z,5.75
2022-12-31T10:19:50.241Z,5.45
2022-12-31T10:22:36.300Z,5.30
2022-12-31T10:25:19.453Z,5.82
2022-12-31T10:28:05.751Z,4.83
2022-12-31T10:30:35.729Z,7.05
2022-12-31T10:33:03.753Z,5.47
2022-12-31T10:35:47.936Z,5.95
2022-12-31T10:38:27.771Z,6.85
2022-12-31T10:41:23.066Z,7.97
2022-12-31T10:44:23.740Z,4.22
2022-12-31T10:47:12.128Z,4.68
2022-12-31T10:49:41.831Z,7.00
2022-12-31T10:52:41.579Z,4.35
2022-12-31T10:55:26.643Z,5.13
2022-12-31T10:58:06.336Z,5.13
2022-12-31T11:00:54.214Z,5.07
2022-12-31T11:03:40.097Z,6.55
2022-12-31T11:06:31.717Z,7.07
2022-12-31T11:09:10.600Z,7.33
2022-12-31T11:11:37.915Z,6.55
2022-12-31T11:14:27.426Z,8.30
2022-12-31T11:17:22.282Z,20.75
2022-12-31T11:20:31.243Z,9.05
2022-12-31T11:23:06.020Z,7.90
2022-12-31T11:25:39.015Z,6.22
2022-12-31T11:28:06.322Z,8.23
2022-12-31T11:30:53.561Z,9.13
2022-12-31T11:33:51.116Z,8.77
2022-12-31T11:36:33.591Z,8.43
2022-12-31T11:39:38.121Z,6.95
2022-12-31T11:42:11.270Z,14.73
2022-12-31T11:44:53.170Z,8.05
2022-12-31T11:48:29.102Z,7.85
2022-12-31T11:51:27.737Z,8.77
2022-12-31T11:53:57.500Z,8.10
2022-12-31T11:56:31.435Z,5.47
2022-12-31T11:58:58.808Z,6.63
2022-12-31T12:02:00.602Z,8.82
2022-12-31T12:04:28.216Z,13.17
2022-12-31T12:06:55.552Z,4.15
2022-12-31T12:09:31.562Z,10.75
2022-12-31T12:12:04.060Z,6.18
2022-12-31T12:14:40.847Z,12.05
2022-12-31T12:17:16.853Z,5.83
2022-12-31T12:19:53.714Z,6.35
2022-12-31T12:22:23.772Z,8.27
2022-12-31T12:24:57.094Z,6.68
2022-12-31T12:27:28.622Z,6.57
2022-12-31T12:29:55.839Z,8.27
2022-12-31T12:32:25.737Z,7.47
2022-12-31T12:34:53.009Z,9.00
2022-12-31T12:37:36.420Z,8.77
2022-12-31T12:40:03.706Z,10.73
2022-12-31T12:42:32.337Z,6.23
2022-12-31T12:45:07.486Z,6.72
2022-12-31T12:47:35.017Z,7.03
2022-12-31T12:50:02.498Z,4.32
2022-12-31T12:52:29.713Z,5.78
2022-12-31T12:55:07.448Z,11.03
2022-12-31T12:57:55.013Z,4.75
2022-12-31T13:00:25.080Z,8.20
2022-12-31T13:03:09.959Z,6.78
2022-12-31T13:05:45.493Z,6.93
2022-12-31T13:08:49.823Z,8.70
2022-12-31T13:11:18.240Z,5.82
2022-12-31T13:13:59.097Z,6.57
2022-12-31T13:16:48.017Z,8.00
2022-12-31T13:19:27.865Z,7.07
2022-12-31T13:22:27.623Z,5.23
2022-12-31T13:25:22.837Z,7.13
2022-12-31T13:27:53.953Z,7.80
2022-12-31T13:30:28.057Z,6.63
2022-12-31T13:33:20.434Z,7.30
2022-12-31T13:35:52.002Z,8.57
2022-12-31T13:38:33.723Z,8.15
2022-12-31T13:41:05.925Z,6.22
2022-12-31T13:43:50.676Z,6.18
2022-12-31T13:46:40.782Z,6.53
2022-12-31T13:49:19.110Z,5.93
2022-12-31T13:51:52.360Z,5.55
2022-12-31T13:54:38.253Z,7.78
2022-12-31T13:57:27.563Z,10.20
2022-12-31T14:00:02.190Z,6.25
2022-12-31T14:02:55.676Z,8.97
2022-12-31T14:05:37.788Z,8.00
2022-12-31T14:08:06.809Z,6.10
2022-12-31T14:10:58.773Z,9.10
2022-12-31T14:13:51.929Z,7.22
2022-12-31T14:16:40.520Z,9.50
2022-12-31T14:19:22.765Z,5.57
2022-12-31T14:22:05.076Z,8.52
2022-12-31T14:24:32.303Z,6.22
2022-12-31T14:27:03.714Z,5.53
2022-12-31T14:29:57.984Z,13.90
2022-12-31T14:32:36.098Z,7.20
2022-12-31T14:35:23.463Z,10.48
2022-12-31T14:38:00.166Z,6.97
2022-12-31T14:41:01.208Z,9.95
2022-12-31T14:43:45.117Z,7.00
2022-12-31T14:46:25.490Z,7.45
2022-12-31T14:49:11.171Z,6.60
2022-12-31T14:51:38.637Z,9.65
2022-12-31T14:54:05.903Z,8.02
2022-12-31T14:56:42.516Z,9.70
2022-12-31T14:59:26.338Z,15.60
2022-12-31T15:01:53.869Z,18.35
2022-12-31T15:04:43.005Z,14.13
2022-12-31T15:07:37.096Z,11.63
2022-12-31T15:10:34.340Z,11.23
2022-12-31T15:13:21.061Z,13.25
2022-12-31T15:16:35.599Z,14.35
2022-12-31T15:19:24.123Z,14.07
2022-12-31T15:22:08.944Z,12.73
2022-12-31T15:24:42.484Z,11.40
2022-12-31T15:27:23.150Z,12.05
2022-12-31T15:29:50.059Z,8.70
2022-12-31T15:32:20.848Z,9.98
2022-12-31T15:34:48.153Z,9.55
2022-12-31T15:37:35.988Z,12.97
2022-12-31T15:40:18.699Z,8.70
2022-12-31T15:43:09.167Z,13.48
2022-12-31T15:45:41.076Z,7.80
2022-12-31T15:48:17.934Z,7.22
2022-12-31T15:50:46.410Z,14.80
2022-12-31T15:53:28.571Z,8.57
2022-12-31T15:55:59.408Z,12.00
2022-12-31T15:58:30.916Z,15.48
2022-12-31T16:01:10.040Z,14.65
2022-12-31T16:03:37.375Z,9.20
2022-12-31T16:06:11.540Z,11.98
2022-12-31T16:08:39.413Z,10.23
2022-12-31T16:11:08.537Z,13.75
2022-12-31T16:13:40.294Z,13.15
2022-12-31T16:16:31.620Z,10.07
2022-12-31T16:19:00.200Z,10.50
2022-12-31T16:21:35.819Z,7.38
2022-12-31T16:24:03.721Z,11.23
2022-12-31T16:26:49.672Z,38.35
2022-12-31T16:29:18.819Z,10.13
2022-12-31T16:31:47.591Z,9.05
2022-12-31T16:34:18.159Z,14.60
2022-12-31T16:36:58.312Z,8.27
2022-12-31T16:39:31.417Z,8.05
2022-12-31T16:42:13.642Z,12.27
2022-12-31T16:44:41.367Z,10.52
2022-12-31T16:47:15.184Z,12.13
2022-12-31T16:49:42.907Z,10.57
2022-12-31T16:52:32.015Z,10.38
2022-12-31T16:54:59.734Z,11.77
2022-12-31T16:57:30.259Z,8.43
2022-12-31T17:00:06.503Z,11.43
2022-12-31T17:02:41.339Z,17.98
2022-12-31T17:05:25.014Z,15.52
2022-12-31T17:07:52.601Z,32.07
2022-12-31T17:10:32.643Z,20.92
2022-12-31T17:15:51.145Z,11.35
2022-12-31T17:18:22.163Z,14.27
2022-12-31T17:20:51.434Z,15.53
2022-12-31T17:23:39.830Z,6.60
2022-12-31T17:26:13.267Z,9.80
2022-12-31T17:28:51.337Z,14.55
2022-12-31T17:31:34.881Z,18.48
2022-12-31T17:34:06.196Z,13.60
2022-12-31T17:36:33.323Z,18.83
2022-12-31T17:39:21.639Z,13.07
2022-12-31T17:41:51.282Z,13.35
2022-12-31T17:44:21.468Z,16.20
2022-12-31T17:46:50.187Z,11.20
2022-12-31T17:49:17.734Z,11.35
2022-12-31T17:51:47.701Z,11.32
2022-12-31T17:54:19.190Z,9.40
2022-12-31T17:56:46.589Z,12.82
2022-12-31T17:59:20.677Z,11.27
2022-12-31T18:01:48.648Z,13.63
2022-12-31T18:04:17.478Z,17.05
2022-12-31T18:06:44.788Z,6.53
2022-12-31T18:09:12.345Z,9.85
2022-12-31T18:11:40.589Z,8.47
2022-12-31T18:14:07.893Z,17.75
2022-12-31T18:16:35.592Z,14.65
2022-12-31T18:19:02.969Z,8.48
2022-12-31T18:21:33.011Z,14.73
2022-12-31T18:26:28.751Z,11.80
2022-12-31T18:28:58.148Z,9.57
2022-12-31T18:31:30.822Z,7.10
2022-12-31T18:33:58.768Z,13.70
2022-12-31T18:36:26.007Z,13.10
2022-12-31T18:38:53.294Z,16.45
2022-12-31T18:41:26.923Z,12.93
2022-12-31T18:43:54.518Z,9.77
2022-12-31T18:46:24.382Z,12.38
2022-12-31T18:48:51.597Z,12.77
2022-12-31T18:51:23.968Z,14.60
2022-12-31T18:53:53.385Z,11.48
2022-12-31T18:56:21.322Z,13.55
2022-12-31T18:58:48.675Z,9.98
2022-12-31T19:01:26.244Z,14.40
2022-12-31T19:03:55.182Z,12.63
2022-12-31T19:06:22.598Z,8.85
2022-12-31T19:08:49.749Z,9.68
2022-12-31T19:11:17.093Z,9.07
2022-12-31T19:13:44.490Z,11.07
2022-12-31T19:16:13.270Z,7.47
2022-12-31T19:18:41.624Z,9.43
2022-12-31T19:21:20.291Z,13.43
2022-12-31T19:23:47.404Z,10.27
2022-12-31T19:26:19.514Z,8.90
2022-12-31T19:28:46.864Z,13.05
2022-12-31T19:31:14.337Z,11.15
2022-12-31T19:33:41.604Z,10.23
2022-12-31T19:36:16.434Z,11.27
2022-12-31T19:38:44.229Z,13.37
2022-12-31T19:41:19.765Z,10.98
2022-12-31T19:43:48.036Z,11.25
2022-12-31T19:46:16.583Z,7.35
2022-12-31T19:48:44.347Z,8.65
2022-12-31T19:51:16.617Z,12.57
2022-12-31T19:53:43.859Z,10.02
2022-12-31T19:56:18.329Z,9.93
2022-12-31T19:58:45.721Z,11.90
2022-12-31T20:01:19.574Z,9.27
2022-12-31T20:03:47.158Z,7.00
2022-12-31T20:06:14.472Z,13.48
2022-12-31T20:08:43.366Z,19.75
2022-12-31T20:11:21.482Z,12.73
2022-12-31T20:13:50.004Z,10.73
2022-12-31T20:16:19.327Z,13.43
2022-12-31T20:18:47.450Z,12.10
2022-12-31T20:21:23.128Z,9.90
2022-12-31T20:23:51.624Z,9.95
2022-12-31T20:26:20.433Z,15.25
2022-12-31T20:28:47.819Z,13.50
2022-12-31T20:31:18.490Z,12.82
2022-12-31T20:33:45.724Z,11.00
2022-12-31T20:36:14.770Z,7.65
2022-12-31T20:38:41.882Z,13.68
2022-12-31T20:41:12.420Z,12.73
2022-12-31T20:43:39.870Z,10.90
2022-12-31T20:46:21.742Z,13.32
2022-12-31T20:48:50.223Z,9.55
2022-12-31T20:51:18.484Z,13.00
2022-12-31T20:53:59.639Z,11.00
2022-12-31T20:56:28.581Z,17.83
2022-12-31T20:58:55.937Z,12.45
2022-12-31T21:01:23.254Z,12.45
2022-12-31T21:04:07.056Z,22.33
2022-12-31T21:06:35.578Z,27.87
2022-12-31T21:09:05.483Z,28.70
2022-12-31T21:11:51.518Z,23.00
2022-12-31T21:14:18.822Z,21.73
2022-12-31T21:16:45.824Z,28.08
2022-12-31T21:19:13.360Z,21.50
2022-12-31T21:21:40.570Z,17.60
2022-12-31T21:24:07.645Z,17.35
2022-12-31T21:26:34.897Z,12.55
2022-12-31T21:29:02.363Z,11.60
2022-12-31T21:31:29.781Z,17.40
2022-12-31T21:33:57.055Z,17.27
2022-12-31T21:36:24.369Z,17.67
2022-12-31T21:38:51.172Z,13.35
2022-12-31T21:41:36.977Z,18.80
2022-12-31T21:44:04.057Z,15.93
2022-12-31T21:46:31.745Z,9.80
2022-12-31T21:49:00.337Z,12.98
2022-12-31T21:51:28.005Z,13.32
2022-12-31T21:53:55.241Z,14.52
2022-12-31T21:56:22.531Z,12.50
2022-12-31T21:59:14.634Z,8.82
2022-12-31T22:02:00.676Z,12.32
2022-12-31T22:05:02.042Z,13.43
2022-12-31T22:07:15.518Z,17.63
2022-12-31T22:09:42.461Z,14.53
2022-12-31T22:12:09.670Z,12.07
2022-12-31T22:14:36.497Z,17.33
2022-12-31T22:17:03.333Z,11.18
2022-12-31T22:19:30.366Z,16.15
2022-12-31T22:21:57.618Z,9.97
2022-12-31T22:24:24.464Z,17.52
2022-12-31T22:26:53.863Z,14.52
2022-12-31T22:29:21.548Z,21.05
2022-12-31T22:31:48.951Z,12.57
2022-12-31T22:34:15.822Z,11.67
2022-12-31T22:36:43.102Z,12.23
2022-12-31T22:39:14.712Z,12.18
2022-12-31T22:42:01.694Z,10.68
2022-12-31T22:44:28.583Z,16.58
2022-12-31T22:46:56.428Z,21.03
2022-12-31T22:49:23.760Z,12.65
2022-12-31T22:51:57.332Z,14.50
2022-12-31T22:54:27.090Z,13.15
2022-12-31T22:56:54.033Z,12.45
2022-12-31T22:59:20.889Z,12.03
2022-12-31T23:01:48.323Z,8.50
2022-12-31T23:04:15.676Z,14.45
2022-12-31T23:06:45.926Z,15.50
2022-12-31T23:09:33.745Z,25.48
2022-12-31T23:12:00.819Z,28.03
2022-12-31T23:14:47.006Z,29.98
2022-12-31T23:17:38.476Z,34.53
2022-12-31T23:20:25.905Z,53.90
2022-12-31T23:23:11.541Z,32.10
2022-12-31T23:25:45.410Z,14.53
2022-12-31T23:28:24.244Z,23.88
2022-12-31T23:30:51.914Z,15.13
2022-12-31T23:33:21.649Z,24.42
2022-12-31T23:35:48.978Z,34.03
2022-12-31T23:38:18.001Z,28.50
2022-12-31T23:40:45.322Z,23.73
2022-12-31T23:43:20.319Z,29.77
2022-12-31T23:45:49.268Z,30.67
2022-12-31T23:48:16.786Z,27.98
2022-12-31T23:50:47.657Z,30.90
2022-12-31T23:53:17.888Z,24.83
2022-12-31T23:55:44.710Z,32.33
2022-12-31T23:58:11.537Z,31.13
